Latest Weather Observations for Cummins Airport

IDS60801

Issued at 7:21 pm CST Monday 4 May 2026 (issued every 10 minutes, with the page automatically refreshed every 10 minutes)

About weather observations | Map of weather stations | Latest weather observations for SA | Other Formats
Station Details ID: 018217 Name: CUMMINS AERO Lat: -34.25 Lon: 135.71 Height: 60.11 m
Data from the previous 72 hours. | See also: Recent months at Cummins Airport
Date/Time
CST
Temp
°C
App
Temp
°C
Dew
Point
°C
Rel
Hum
%
Delta-T
°C
Wind Press
QNH
hPa
Press
MSL
hPa
Rain since
9am
mm
Dir  Spd
km/h
Gust
km/h
Spd
kts
Gust
kts
04/07:00pm 12.9 10.8 11.3 90 0.8 SSW 13 15 7 8 1020.4 1020.4 0.0
04/06:30pm 13.5 11.2 11.7 89 1.0 SSW 15 20 8 11 1019.9 1019.9 0.0
04/06:00pm 13.9 10.8 11.6 86 1.2 SW 19 24 10 13 1019.5 1019.5 0.0
04/05:30pm 14.4 10.8 11.9 85 1.3 SW 22 33 12 18 1019.1 1019.1 0.0
04/05:00pm 14.8 11.2 11.9 83 1.6 SW 22 30 12 16 1018.7 1018.7 0.0
04/04:30pm 15.9 12.3 11.9 77 2.2 SW 22 28 12 15 1018.5 1018.5 0.0
04/04:00pm 15.6 11.6 11.8 78 2.1 SW 24 32 13 17 1018.2 1018.2 0.0
04/03:30pm 16.1 12.8 11.7 75 2.4 SW 20 28 11 15 1018.0 1018.0 0.0
04/03:00pm 17.0 12.3 10.6 66 3.4 WSW 26 35 14 19 1017.6 1017.6 0.0
04/02:30pm 18.3 13.6 12.1 67 3.4 W 28 33 15 18 1017.2 1017.1 0.0
04/02:00pm 17.7 14.0 12.8 73 2.7 W 24 33 13 18 1017.0 1016.9 0.0
04/01:30pm 17.2 11.5 11.0 67 3.3 W 32 41 17 22 1016.9 1016.8 0.0
04/01:00pm 17.3 13.0 12.0 71 2.9 W 26 32 14 17 1017.1 1017.0 0.0
04/12:30pm 18.1 13.1 11.0 63 3.8 W 28 35 15 19 1017.1 1017.0 0.0
04/12:00pm 17.8 12.1 9.9 60 4.2 WSW 30 39 16 21 1017.4 1017.3 0.0
04/11:30am 16.8 12.2 11.1 69 3.1 SW 26 35 14 19 1017.6 1017.6 0.0
04/11:00am 17.3 12.4 10.0 62 3.9 WSW 26 37 14 20 1017.5 1017.5 0.0
04/10:30am 16.7 11.5 10.3 66 3.4 WSW 28 35 15 19 1017.4 1017.3 0.0
04/10:00am 16.4 13.0 11.3 72 2.8 WSW 20 30 11 16 1017.0 1016.9 0.0
04/09:30am 15.7 12.8 12.3 80 1.9 WSW 19 26 10 14 1016.9 1016.8 0.0
04/09:00am 15.1 13.1 12.8 86 1.3 WSW 15 20 8 11 1016.7 1016.6 5.4
04/08:30am 13.6 11.8 12.2 91 0.8 WNW 13 15 7 8 1016.3 1016.2 5.4
04/08:00am 12.2 10.5 11.1 93 0.6 WNW 11 13 6 7 1015.8 1015.7 5.4
04/07:30am 11.3 9.4 10.4 94 0.5 WNW 11 13 6 7 1015.4 1015.3 5.4
04/07:00am 11.0 9.4 10.1 94 0.5 W 9 13 5 7 1015.1 1015.0 5.4
04/06:30am 9.4 6.6 8.5 94 0.4 W 13 15 7 8 1014.8 1014.7 5.4
04/06:00am 9.9 7.5 8.8 93 0.5 WNW 11 13 6 7 1014.3 1014.2 5.4
04/05:30am 11.4 9.5 10.5 94 0.5 WNW 11 11 6 6 1014.1 1014.0 5.4
04/05:00am 11.4 9.9 10.5 94 0.5 NW 9 11 5 6 1013.9 1013.8 5.4
04/04:30am 11.2 9.9 10.1 93 0.6 NW 7 11 4 6 1013.8 1013.7 5.4
04/04:00am 11.9 9.3 10.6 92 0.7 WNW 15 17 8 9 1013.6 1013.5 5.2
04/03:30am 12.1 9.1 10.8 92 0.7 WNW 17 20 9 11 1013.6 1013.5 5.2
04/03:00am 12.5 9.1 11.1 91 0.7 W 20 26 11 14 1013.6 1013.5 5.2
04/02:30am 12.5 9.0 10.9 90 0.8 WSW 20 28 11 15 1013.7 1013.6 4.2
04/02:00am 12.4 8.9 10.8 90 0.8 WSW 20 33 11 18 1013.6 1013.5 4.2
04/01:30am 12.5 9.1 10.7 89 0.9 W 19 24 10 13 1013.6 1013.5 4.2
04/01:00am 12.7 9.4 10.8 88 1.0 WSW 19 30 10 16 1013.6 1013.5 4.0
04/12:30am 12.5 10.3 10.9 90 0.8 W 13 15 7 8 1013.8 1013.7 4.0
04/12:00am 12.5 10.0 10.9 90 0.8 W 15 19 8 10 1013.6 1013.5 4.0
 
Date/Time
CST
Temp
°C
App
Temp
°C
Dew
Point
°C
Rel
Hum
%
Delta-T
°C
Wind Press
QNH
hPa
Press
MSL
hPa
Rain since
9am
mm
Dir  Spd
km/h
Gust
km/h
Spd
kts
Gust
kts
03/11:37pm 13.0 9.5 10.9 87 1.1 W 20 41 11 22 1013.9 1013.8 3.4
03/11:30pm 12.7 9.2 10.2 85 1.3 WNW 19 22 10 12 1013.7 1013.6 3.4
03/11:00pm 12.5 9.8 10.2 86 1.2 WNW 15 22 8 12 1013.7 1013.6 3.4
03/10:30pm 12.5 8.9 9.9 84 1.3 WNW 19 24 10 13 1013.6 1013.5 3.4
03/10:00pm 12.9 7.2 8.4 74 2.2 W 28 43 15 23 1013.5 1013.4 3.4
03/09:50pm 13.2 7.8 9.5 78 1.9 W 28 46 15 25 1013.4 1013.3 3.4
03/09:30pm 13.0 9.6 10.7 86 1.2 W 19 24 10 13 1013.4 1013.3 3.4
03/09:00pm 12.6 9.9 10.3 86 1.2 WNW 15 19 8 10 1013.3 1013.2 3.2
03/08:30pm 12.4 10.6 10.8 90 0.8 NW 11 20 6 11 1013.0 1012.9 3.2
03/08:00pm 12.4 10.5 10.6 89 0.9 WNW 11 15 6 8 1012.8 1012.7 3.2
03/07:30pm 12.4 9.8 10.8 90 0.8 WNW 15 17 8 9 1012.7 1012.6 3.2
03/07:00pm 12.5 9.6 10.9 90 0.8 NW 17 20 9 11 1012.2 1012.1 2.2
03/06:30pm 12.7 9.3 10.6 87 1.1 WNW 19 26 10 14 1011.9 1011.8 2.2
03/06:00pm 13.8 9.6 11.1 84 1.4 NW 24 43 13 23 1011.8 1011.7 2.2
03/05:30pm 14.1 10.4 11.4 84 1.4 W 22 30 12 16 1011.4 1011.3 1.8
03/05:00pm 13.6 9.3 10.8 83 1.5 WNW 24 35 13 19 1011.3 1011.2 1.8
03/04:34pm 14.8 9.1 11.0 78 2.0 WNW 32 50 17 27 1011.3 1011.2 1.6
03/04:30pm 14.9 9.5 10.9 77 2.1 WNW 30 41 16 22 1011.2 1011.1 1.6
03/04:00pm 15.8 10.5 11.4 75 2.4 WNW 30 50 16 27 1010.8 1010.8 1.6
03/03:33pm 14.9 9.3 12.0 83 1.6 NW 33 52 18 28 1010.8 1010.8 1.6
03/03:30pm 14.4 7.9 11.6 83 1.5 NW 37 52 20 28 1010.8 1010.8 1.6
03/03:00pm 16.3 9.5 9.3 63 3.6 WNW 35 56 19 30 1010.7 1010.7 1.4
03/02:31pm 16.9 9.5 9.8 63 3.7 WNW 39 57 21 31 1010.4 1010.4 1.4
03/02:30pm 16.9 9.1 9.8 63 3.7 WNW 41 57 22 31 1010.4 1010.4 1.4
03/02:22pm 16.6 9.2 9.8 64 3.6 WNW 39 57 21 31 1010.3 1010.3 1.4
03/02:00pm 16.1 10.3 12.7 80 1.9 WNW 35 52 19 28 1010.4 1010.4 1.4
03/01:30pm 17.2 10.2 10.1 63 3.8 WNW 37 54 20 29 1010.4 1010.4 1.0
03/01:03pm 16.5 9.9 11.2 71 2.9 WNW 37 56 20 30 1010.6 1010.6 1.0
03/01:00pm 16.7 10.4 11.0 69 3.1 WNW 35 50 19 27 1010.7 1010.7 1.0
03/12:30pm 16.4 10.0 10.7 69 3.0 NW 35 50 19 27 1011.1 1011.0 1.0
03/12:00pm 15.8 9.4 10.6 71 2.8 WNW 35 50 19 27 1011.2 1011.1 1.0
03/11:30am 13.9 7.6 10.9 82 1.6 WNW 35 57 19 31 1011.5 1011.4 0.8
03/11:27am 15.5 9.8 11.3 76 2.3 WNW 32 57 17 31 1011.5 1011.4 0.4
03/11:00am 16.1 10.4 11.9 76 2.3 NW 33 43 18 23 1011.4 1011.3 0.4
03/10:30am 13.9 8.2 11.2 84 1.4 NW 32 43 17 23 1011.5 1011.4 0.4
03/10:14am 14.1 7.8 11.1 82 1.6 WNW 35 54 19 29 1011.6 1011.5 0.0
03/10:00am 16.1 11.6 11.5 74 2.5 NW 26 37 14 20 1011.3 1011.2 0.0
03/09:30am 14.4 10.8 11.9 85 1.4 NW 22 32 12 17 1011.3 1011.2 0.0
03/09:00am 13.5 9.4 11.4 87 1.1 NW 24 32 13 17 1011.4 1011.3 3.2
03/08:50am 13.3 8.0 11.2 87 1.1 WNW 30 48 16 26 1011.5 1011.4 3.2
03/08:30am 13.2 9.4 11.1 87 1.1 NNW 22 35 12 19 1010.7 1010.7 2.6
03/08:00am 12.4 8.9 10.3 87 1.1 NNW 19 24 10 13 1010.6 1010.6 2.6
03/07:30am 11.7 6.8 9.8 88 1.0 NNW 26 35 14 19 1010.6 1010.6 2.6
03/07:00am 11.4 7.4 9.1 86 1.2 NNW 20 26 11 14 1009.9 1009.9 2.4
03/06:30am 12.2 7.5 9.4 83 1.4 NW 24 32 13 17 1009.8 1009.8 2.4
03/06:00am 11.8 7.1 9.4 85 1.2 NW 24 33 13 18 1010.1 1010.1 2.4
03/05:30am 11.1 7.0 8.7 85 1.2 NNW 20 26 11 14 1009.8 1009.8 1.8
03/05:00am 10.8 6.9 8.6 86 1.1 N 19 22 10 12 1009.8 1009.8 1.8
03/04:30am 10.2 7.3 8.3 88 0.9 N 13 17 7 9 1009.7 1009.7 1.8
03/04:00am 10.9 7.7 8.3 84 1.3 N 15 24 8 13 1009.7 1009.7 1.8
03/03:30am 11.6 7.8 7.5 76 2.0 NW 17 24 9 13 1009.8 1009.8 1.8
03/03:00am 11.9 7.6 8.0 77 1.9 NW 20 26 11 14 1009.8 1009.8 1.8
03/02:30am 12.1 7.9 8.4 78 1.8 NW 20 32 11 17 1010.0 1010.0 1.8
03/02:00am 11.5 8.6 8.0 79 1.7 NW 13 17 7 9 1009.9 1009.9 1.8
03/01:30am 10.9 8.2 9.0 88 0.9 NNW 13 17 7 9 1010.1 1010.1 1.8
03/01:00am 11.4 8.7 9.0 85 1.2 NNW 13 19 7 10 1010.1 1010.1 1.8
03/12:30am 12.0 8.4 9.9 87 1.1 NNW 19 22 10 12 1010.2 1010.2 1.8
03/12:00am 11.7 9.0 10.3 91 0.7 N 15 20 8 11 1010.2 1010.2 1.8
 
Date/Time
CST
Temp
°C
App
Temp
°C
Dew
Point
°C
Rel
Hum
%
Delta-T
°C
Wind Press
QNH
hPa
Press
MSL
hPa
Rain since
9am
mm
Dir  Spd
km/h
Gust
km/h
Spd
kts
Gust
kts
02/11:30pm 11.9 9.2 10.5 91 0.7 NNW 15 19 8 10 1010.4 1010.4 1.8
02/11:00pm 12.2 8.7 10.9 92 0.7 NW 20 28 11 15 1011.0 1010.9 1.6
02/10:30pm 12.2 9.7 10.9 92 0.7 NNW 15 19 8 10 1010.6 1010.6 1.2
02/10:00pm 12.5 7.4 10.7 89 0.9 NW 28 43 15 23 1010.7 1010.7 1.2
02/09:30pm 12.5 8.3 11.2 92 0.7 NNW 24 30 13 16 1010.4 1010.4 0.8
02/09:00pm 12.3 9.4 10.9 91 0.7 NNW 17 20 9 11 1010.4 1010.4 0.6
02/08:30pm 12.4 8.1 10.8 90 0.8 NNW 24 35 13 19 1010.2 1010.2 0.6
02/08:00pm 12.7 8.0 10.6 87 1.1 NNW 26 35 14 19 1010.1 1010.1 0.4
02/07:30pm 13.4 9.3 10.0 80 1.8 NNW 22 33 12 18 1009.8 1009.8 0.0
02/07:00pm 13.5 8.9 9.7 78 2.0 NNW 24 33 13 18 1009.3 1009.3 0.0
02/06:30pm 14.0 9.1 9.8 76 2.2 NNW 26 35 14 19 1009.3 1009.3 0.0
02/06:00pm 14.4 9.9 10.2 76 2.2 NNW 24 33 13 18 1009.0 1009.0 0.0
02/05:30pm 15.3 9.6 9.7 69 2.9 NW 30 41 16 22 1008.8 1008.8 0.0
02/05:00pm 16.1 9.5 10.0 67 3.2 NW 35 50 19 27 1008.4 1008.4 0.0
02/04:30pm 16.7 9.4 10.1 65 3.5 NW 39 57 21 31 1008.3 1008.3 0.0
02/04:07pm 16.5 10.0 10.4 67 3.2 NW 35 54 19 29 1008.3 1008.3 0.0
02/04:00pm 16.4 9.6 10.7 69 3.0 NW 37 48 20 26 1008.3 1008.3 0.0
02/03:30pm 16.3 8.2 9.9 66 3.4 NW 43 61 23 33 1008.1 1008.1 0.0
02/03:14pm 18.0 10.3 8.8 55 4.8 NW 39 57 21 31 1008.0 1008.0 0.0
02/03:00pm 17.6 9.2 9.8 60 4.1 NW 44 57 24 31 1008.0 1008.0 0.0
02/02:30pm 17.3 10.3 10.0 62 3.9 NW 37 52 20 28 1007.8 1007.8 0.0
02/02:09pm 17.1 9.0 10.2 64 3.7 NW 43 61 23 33 1007.9 1007.9 0.0
02/02:00pm 17.8 9.3 9.4 58 4.4 NW 44 61 24 33 1007.7 1007.7 0.0
02/01:50pm 17.7 9.7 10.6 63 3.8 NW 43 61 23 33 1007.7 1007.7 0.0
02/01:30pm 18.0 9.9 9.9 59 4.3 NW 43 57 23 31 1007.8 1007.8 0.0
02/01:00pm 18.2 10.7 9.5 57 4.6 NW 39 54 21 29 1008.0 1008.0 0.0
02/12:30pm 19.1 11.9 9.0 52 5.3 NW 37 56 20 30 1008.0 1008.0 0.0
02/12:00pm 18.9 12.4 10.2 57 4.7 NW 35 54 19 29 1008.3 1008.3 0.0
02/11:49am 18.5 11.3 9.0 54 5.0 NW 37 56 20 30 1008.3 1008.3 0.0
02/11:30am 18.0 10.5 9.6 58 4.4 NW 39 54 21 29 1008.5 1008.5 0.0
02/11:27am 18.5 11.9 10.1 58 4.5 NW 35 54 19 29 1008.5 1008.5 0.0
02/11:00am 18.1 11.6 10.2 60 4.2 WNW 35 48 19 26 1008.6 1008.6 0.0
02/10:42am 17.4 10.3 9.6 60 4.1 NW 37 56 20 30 1008.7 1008.7 0.0
02/10:30am 16.9 9.9 10.1 64 3.6 NW 37 50 20 27 1008.7 1008.7 0.0
02/10:00am 16.6 12.6 13.1 80 2.0 NNW 26 43 14 23 1008.6 1008.6 0.0
02/09:30am 15.7 12.9 14.2 91 0.9 NNW 22 28 12 15 1008.7 1008.7 0.0
02/09:00am 14.7 11.2 13.4 92 0.7 NW 24 35 13 19 1008.7 1008.7 6.2
02/08:30am 14.7 12.0 13.4 92 0.7 NNW 20 28 11 15 1008.2 1008.2 6.2
02/08:00am 14.5 11.9 13.2 92 0.7 NNW 19 30 10 16 1008.2 1008.2 5.6
02/07:30am 14.3 11.0 12.9 91 0.8 NW 22 30 12 16 1007.7 1007.7 5.4
02/07:00am 14.2 10.9 12.9 92 0.7 NW 22 30 12 16 1007.6 1007.6 5.4
02/06:30am 14.2 8.5 12.9 92 0.7 WNW 35 46 19 25 1007.6 1007.6 5.2
02/06:00am 15.1 8.4 13.5 90 0.9 WNW 41 59 22 32 1007.0 1007.0 4.0
02/05:55am 15.5 9.1 13.2 86 1.3 NW 39 59 21 32 1006.7 1006.7 4.0
02/05:49am 17.1 12.9 14.7 86 1.4 NNW 30 50 16 27 1006.4 1006.4 3.8
02/05:30am 17.2 14.2 14.8 86 1.4 NNW 24 33 13 18 1005.8 1005.8 2.8
02/05:00am 17.2 14.0 14.3 83 1.7 NNE 24 35 13 19 1004.9 1004.9 2.8
02/04:30am 17.0 14.6 14.5 85 1.4 NNE 20 26 11 14 1004.8 1004.8 2.8
02/04:00am 16.9 14.5 14.5 86 1.4 NNE 20 28 11 15 1005.5 1005.5 2.8
02/03:30am 17.0 13.9 14.6 86 1.4 N 24 30 13 16 1006.3 1006.3 2.6
02/03:00am 17.3 13.2 14.8 85 1.5 N 30 43 16 23 1007.5 1007.5 1.6
02/02:39am 18.1 12.6 14.6 80 2.0 N 37 56 20 30 1007.8 1007.8 0.4
02/02:30am 19.6 11.9 13.3 67 3.6 NNW 46 61 25 33 1007.9 1007.9 0.0
02/02:00am 22.9 15.0 10.7 46 6.8 N 43 63 23 34 1007.3 1007.3 0.0
02/01:34am 23.3 16.7 10.0 43 7.3 N 35 63 19 34 1007.0 1007.0 0.0
02/01:30am 22.7 16.6 9.8 44 7.0 NNE 32 43 17 23 1006.8 1006.8 0.0
02/01:00am 22.4 16.2 9.2 43 7.1 NNE 32 44 17 24 1006.5 1006.5 0.0
02/12:30am 22.4 17.6 8.9 42 7.2 NNE 24 33 13 18 1007.1 1007.1 0.0
02/12:00am 21.7 17.5 9.6 46 6.5 ENE 22 35 12 19 1006.9 1006.9 0.0
 
Date/Time
CST
Temp
°C
App
Temp
°C
Dew
Point
°C
Rel
Hum
%
Delta-T
°C
Wind Press
QNH
hPa
Press
MSL
hPa
Rain since
9am
mm
Dir  Spd
km/h
Gust
km/h
Spd
kts
Gust
kts
01/11:30pm 19.2 16.9 10.5 57 4.7 ENE 13 19 7 10 1007.4 1007.4 0.0
01/11:00pm 18.5 15.6 11.1 62 4.0 E 17 20 9 11 1008.1 1008.1 0.0
01/10:30pm 17.9 15.8 11.2 65 3.6 ESE 13 17 7 9 1009.5 1009.5 0.0
01/10:00pm 17.8 17.0 11.8 68 3.3 SW 7 7 4 4 1010.0 1010.0 0.0
01/09:30pm 18.3 14.9 11.1 63 3.9 W 20 28 11 15 1010.7 1010.7 0.0
01/09:00pm 18.3 15.6 9.1 55 4.8 NNW 13 33 7 18 1010.7 1010.7 0.0
01/08:30pm 16.8 14.7 8.2 57 4.4 E 9 9 5 5 1009.5 1009.5 0.0
01/08:00pm 17.3 16.9 8.2 55 4.7 CALM 0 0 0 0 1009.8 1009.8 0.0
01/07:30pm 18.9 17.8 8.6 51 5.4 WSW 4 7 2 4 1009.8 1009.8 0.0

Other formats

Comma delimited format used in spreadsheet applications
http://www.bom.gov.au/fwo/IDS60801/IDS60801.95663.axf

JavaScript Object Notation format (JSON) in row-major order
http://www.bom.gov.au/fwo/IDS60801/IDS60801.95663.json

Data quality

Most of these data are generated automatically and are frequently updated. Quality checks on data are not normally performed. It is possible for incorrect values to appear. Refer to information at About Latest Weather Observations and please check the disclaimer before using these data.